sensor_id;sensor_type;location;lat;lon;timestamp;temperature;humidity
13806;DHT22;6974;53.606;9.872;2022-10-26T00:01:04;12.50;99.90
13806;DHT22;6974;53.606;9.872;2022-10-26T00:03:32;12.50;99.90
13806;DHT22;6974;53.606;9.872;2022-10-26T00:06:07;12.40;99.90
13806;DHT22;6974;53.606;9.872;2022-10-26T00:08:35;12.50;99.90
13806;DHT22;6974;53.606;9.872;2022-10-26T00:11:03;12.40;99.90
13806;DHT22;6974;53.606;9.872;2022-10-26T00:13:30;12.40;99.90
13806;DHT22;6974;53.606;9.872;2022-10-26T00:15:57;12.40;99.90
13806;DHT22;6974;53.606;9.872;2022-10-26T00:18:24;12.40;99.90
13806;DHT22;6974;53.606;9.872;2022-10-26T00:20:51;12.40;99.90
13806;DHT22;6974;53.606;9.872;2022-10-26T00:23:18;12.30;99.90
13806;DHT22;6974;53.606;9.872;2022-10-26T00:25:53;12.30;99.90
13806;DHT22;6974;53.606;9.872;2022-10-26T00:28:20;12.30;99.90
13806;DHT22;6974;53.606;9.872;2022-10-26T00:30:46;12.30;99.90
13806;DHT22;6974;53.606;9.872;2022-10-26T00:33:13;12.30;99.90
13806;DHT22;6974;53.606;9.872;2022-10-26T00:35:40;12.30;99.90
13806;DHT22;6974;53.606;9.872;2022-10-26T00:38:07;12.20;99.90
13806;DHT22;6974;53.606;9.872;2022-10-26T00:40:34;12.20;99.90
13806;DHT22;6974;53.606;9.872;2022-10-26T00:43:02;12.20;99.90
13806;DHT22;6974;53.606;9.872;2022-10-26T00:45:29;12.20;99.90
13806;DHT22;6974;53.606;9.872;2022-10-26T00:47:58;12.10;99.90
13806;DHT22;6974;53.606;9.872;2022-10-26T00:50:28;12.10;99.90
13806;DHT22;6974;53.606;9.872;2022-10-26T00:52:57;12.10;99.90
13806;DHT22;6974;53.606;9.872;2022-10-26T00:55:27;12.10;99.90
13806;DHT22;6974;53.606;9.872;2022-10-26T00:57:55;12.10;99.90
13806;DHT22;6974;53.606;9.872;2022-10-26T01:00:23;12.00;99.90
13806;DHT22;6974;53.606;9.872;2022-10-26T01:02:51;12.00;99.90
13806;DHT22;6974;53.606;9.872;2022-10-26T01:05:20;11.90;99.90
13806;DHT22;6974;53.606;9.872;2022-10-26T01:07:47;11.90;99.90
13806;DHT22;6974;53.606;9.872;2022-10-26T01:10:14;11.90;99.90
13806;DHT22;6974;53.606;9.872;2022-10-26T01:12:41;11.90;99.90
13806;DHT22;6974;53.606;9.872;2022-10-26T01:15:09;11.90;99.90
13806;DHT22;6974;53.606;9.872;2022-10-26T01:17:50;11.90;99.90
13806;DHT22;6974;53.606;9.872;2022-10-26T01:20:43;11.80;99.90
13806;DHT22;6974;53.606;9.872;2022-10-26T01:23:18;11.80;99.90
13806;DHT22;6974;53.606;9.872;2022-10-26T01:26:26;11.70;99.90
13806;DHT22;6974;53.606;9.872;2022-10-26T01:31:57;11.70;99.90
13806;DHT22;6974;53.606;9.872;2022-10-26T01:34:32;11.70;99.90
13806;DHT22;6974;53.606;9.872;2022-10-26T01:37:06;11.70;99.90
13806;DHT22;6974;53.606;9.872;2022-10-26T01:39:38;11.70;99.90
13806;DHT22;6974;53.606;9.872;2022-10-26T01:42:08;11.60;99.90
13806;DHT22;6974;53.606;9.872;2022-10-26T01:44:39;11.70;99.90
13806;DHT22;6974;53.606;9.872;2022-10-26T01:47:10;11.70;99.90
13806;DHT22;6974;53.606;9.872;2022-10-26T01:49:40;11.60;99.90
13806;DHT22;6974;53.606;9.872;2022-10-26T01:52:09;11.60;99.90
13806;DHT22;6974;53.606;9.872;2022-10-26T01:54:36;11.60;99.90
13806;DHT22;6974;53.606;9.872;2022-10-26T01:57:04;11.60;99.90
13806;DHT22;6974;53.606;9.872;2022-10-26T01:59:46;11.50;99.90
13806;DHT22;6974;53.606;9.872;2022-10-26T02:05:29;11.60;99.90
13806;DHT22;6974;53.606;9.872;2022-10-26T02:08:06;11.50;99.90
13806;DHT22;6974;53.606;9.872;2022-10-26T02:10:45;11.50;99.90
13806;DHT22;6974;53.606;9.872;2022-10-26T02:13:17;11.50;99.90
13806;DHT22;6974;53.606;9.872;2022-10-26T02:15:52;11.50;99.90
13806;DHT22;6974;53.606;9.872;2022-10-26T02:18:28;11.50;99.90
13806;DHT22;6974;53.606;9.872;2022-10-26T02:21:00;11.40;99.90
13806;DHT22;6974;53.606;9.872;2022-10-26T02:23:30;11.40;99.90
13806;DHT22;6974;53.606;9.872;2022-10-26T02:26:00;11.40;99.90
13806;DHT22;6974;53.606;9.872;2022-10-26T02:28:30;11.40;99.90
13806;DHT22;6974;53.606;9.872;2022-10-26T02:31:00;11.40;99.90
13806;DHT22;6974;53.606;9.872;2022-10-26T02:33:34;11.40;99.90
13806;DHT22;6974;53.606;9.872;2022-10-26T02:36:08;11.30;99.90
13806;DHT22;6974;53.606;9.872;2022-10-26T02:38:39;11.30;99.90
13806;DHT22;6974;53.606;9.872;2022-10-26T02:41:09;11.40;99.90
13806;DHT22;6974;53.606;9.872;2022-10-26T02:43:43;11.30;99.90
13806;DHT22;6974;53.606;9.872;2022-10-26T02:46:16;11.30;99.90
13806;DHT22;6974;53.606;9.872;2022-10-26T02:48:46;11.30;99.90
13806;DHT22;6974;53.606;9.872;2022-10-26T02:51:17;11.40;99.90
13806;DHT22;6974;53.606;9.872;2022-10-26T02:53:50;11.40;99.90
13806;DHT22;6974;53.606;9.872;2022-10-26T02:56:23;11.40;99.90
13806;DHT22;6974;53.606;9.872;2022-10-26T02:58:55;11.30;99.90
13806;DHT22;6974;53.606;9.872;2022-10-26T03:01:24;11.30;99.90
13806;DHT22;6974;53.606;9.872;2022-10-26T03:03:56;11.30;99.90
13806;DHT22;6974;53.606;9.872;2022-10-26T03:06:24;11.30;99.90
13806;DHT22;6974;53.606;9.872;2022-10-26T03:08:51;11.20;99.90
13806;DHT22;6974;53.606;9.872;2022-10-26T03:11:18;11.30;99.90
13806;DHT22;6974;53.606;9.872;2022-10-26T03:13:45;11.20;99.90
13806;DHT22;6974;53.606;9.872;2022-10-26T03:16:12;11.20;99.90
13806;DHT22;6974;53.606;9.872;2022-10-26T03:18:39;11.10;99.90
13806;DHT22;6974;53.606;9.872;2022-10-26T03:21:08;11.20;99.90
13806;DHT22;6974;53.606;9.872;2022-10-26T03:23:35;11.20;99.90
13806;DHT22;6974;53.606;9.872;2022-10-26T03:26:02;11.10;99.90
13806;DHT22;6974;53.606;9.872;2022-10-26T03:28:29;11.10;99.90
13806;DHT22;6974;53.606;9.872;2022-10-26T03:30:56;11.10;99.90
13806;DHT22;6974;53.606;9.872;2022-10-26T03:33:23;11.10;99.90
13806;DHT22;6974;53.606;9.872;2022-10-26T03:35:53;11.10;99.90
13806;DHT22;6974;53.606;9.872;2022-10-26T03:38:22;11.10;99.90
13806;DHT22;6974;53.606;9.872;2022-10-26T03:40:49;11.20;99.90
13806;DHT22;6974;53.606;9.872;2022-10-26T03:43:16;11.10;99.90
13806;DHT22;6974;53.606;9.872;2022-10-26T03:45:43;11.00;99.90
13806;DHT22;6974;53.606;9.872;2022-10-26T03:48:10;11.00;99.90
13806;DHT22;6974;53.606;9.872;2022-10-26T03:50:37;11.00;99.90
13806;DHT22;6974;53.606;9.872;2022-10-26T03:53:05;11.00;99.90
13806;DHT22;6974;53.606;9.872;2022-10-26T03:55:33;11.00;99.90
13806;DHT22;6974;53.606;9.872;2022-10-26T03:58:00;11.00;99.90
13806;DHT22;6974;53.606;9.872;2022-10-26T04:00:27;10.90;99.90
13806;DHT22;6974;53.606;9.872;2022-10-26T04:02:57;10.90;99.90
13806;DHT22;6974;53.606;9.872;2022-10-26T04:05:25;11.00;99.90
13806;DHT22;6974;53.606;9.872;2022-10-26T04:07:54;11.00;99.90
13806;DHT22;6974;53.606;9.872;2022-10-26T04:10:21;11.00;99.90
13806;DHT22;6974;53.606;9.872;2022-10-26T04:12:50;11.00;99.90
13806;DHT22;6974;53.606;9.872;2022-10-26T04:15:18;11.00;99.90
13806;DHT22;6974;53.606;9.872;2022-10-26T04:17:45;10.90;99.90
13806;DHT22;6974;53.606;9.872;2022-10-26T04:20:12;10.90;99.90
13806;DHT22;6974;53.606;9.872;2022-10-26T04:22:39;10.90;99.90
13806;DHT22;6974;53.606;9.872;2022-10-26T04:25:07;10.90;99.90
13806;DHT22;6974;53.606;9.872;2022-10-26T04:27:34;10.80;99.90
13806;DHT22;6974;53.606;9.872;2022-10-26T04:30:04;10.90;99.90
13806;DHT22;6974;53.606;9.872;2022-10-26T04:32:34;10.90;99.90
13806;DHT22;6974;53.606;9.872;2022-10-26T04:35:01;10.90;99.90
13806;DHT22;6974;53.606;9.872;2022-10-26T04:37:28;10.90;99.90
13806;DHT22;6974;53.606;9.872;2022-10-26T04:39:55;10.90;99.90
13806;DHT22;6974;53.606;9.872;2022-10-26T04:42:22;10.90;99.90
13806;DHT22;6974;53.606;9.872;2022-10-26T04:44:49;10.90;99.90
13806;DHT22;6974;53.606;9.872;2022-10-26T04:47:17;10.90;99.90
13806;DHT22;6974;53.606;9.872;2022-10-26T04:49:44;10.90;99.90
13806;DHT22;6974;53.606;9.872;2022-10-26T04:52:11;10.90;99.90
13806;DHT22;6974;53.606;9.872;2022-10-26T04:54:38;10.90;99.90
13806;DHT22;6974;53.606;9.872;2022-10-26T04:57:05;10.90;99.90
13806;DHT22;6974;53.606;9.872;2022-10-26T04:59:32;11.00;99.90
13806;DHT22;6974;53.606;9.872;2022-10-26T05:01:59;11.00;99.90
13806;DHT22;6974;53.606;9.872;2022-10-26T05:04:27;10.90;99.90
13806;DHT22;6974;53.606;9.872;2022-10-26T05:06:55;10.90;99.90
13806;DHT22;6974;53.606;9.872;2022-10-26T05:09:22;10.80;99.90
13806;DHT22;6974;53.606;9.872;2022-10-26T05:11:49;10.80;99.90
13806;DHT22;6974;53.606;9.872;2022-10-26T05:14:16;10.80;99.90
13806;DHT22;6974;53.606;9.872;2022-10-26T05:16:43;10.80;99.90
13806;DHT22;6974;53.606;9.872;2022-10-26T05:19:10;10.80;99.90
13806;DHT22;6974;53.606;9.872;2022-10-26T05:21:41;10.80;99.90
13806;DHT22;6974;53.606;9.872;2022-10-26T05:24:08;10.80;99.90
13806;DHT22;6974;53.606;9.872;2022-10-26T05:26:35;10.80;99.90
13806;DHT22;6974;53.606;9.872;2022-10-26T05:29:04;10.80;99.90
13806;DHT22;6974;53.606;9.872;2022-10-26T05:31:32;10.80;99.90
13806;DHT22;6974;53.606;9.872;2022-10-26T05:33:59;10.70;99.90
13806;DHT22;6974;53.606;9.872;2022-10-26T05:36:26;10.70;99.90
13806;DHT22;6974;53.606;9.872;2022-10-26T05:38:58;10.70;99.90
13806;DHT22;6974;53.606;9.872;2022-10-26T05:41:25;10.70;99.90
13806;DHT22;6974;53.606;9.872;2022-10-26T05:43:53;10.70;99.90
13806;DHT22;6974;53.606;9.872;2022-10-26T05:46:20;10.70;99.90
13806;DHT22;6974;53.606;9.872;2022-10-26T05:48:47;10.80;99.90
13806;DHT22;6974;53.606;9.872;2022-10-26T05:51:14;10.80;99.90
13806;DHT22;6974;53.606;9.872;2022-10-26T05:53:41;10.70;99.90
13806;DHT22;6974;53.606;9.872;2022-10-26T05:56:15;10.70;99.90
13806;DHT22;6974;53.606;9.872;2022-10-26T05:58:45;10.70;99.90
13806;DHT22;6974;53.606;9.872;2022-10-26T06:01:19;10.70;99.90
13806;DHT22;6974;53.606;9.872;2022-10-26T06:04:01;10.70;99.90
13806;DHT22;6974;53.606;9.872;2022-10-26T06:06:37;10.80;99.90
13806;DHT22;6974;53.606;9.872;2022-10-26T06:09:07;10.70;99.90
13806;DHT22;6974;53.606;9.872;2022-10-26T06:11:37;10.70;99.90
13806;DHT22;6974;53.606;9.872;2022-10-26T06:14:05;10.70;99.90
13806;DHT22;6974;53.606;9.872;2022-10-26T06:16:41;10.70;99.90
13806;DHT22;6974;53.606;9.872;2022-10-26T06:19:23;10.70;99.90
13806;DHT22;6974;53.606;9.872;2022-10-26T06:22:04;10.80;99.90
13806;DHT22;6974;53.606;9.872;2022-10-26T06:24:40;10.80;99.90
13806;DHT22;6974;53.606;9.872;2022-10-26T06:27:18;10.90;99.90
13806;DHT22;6974;53.606;9.872;2022-10-26T06:29:53;10.90;99.90
13806;DHT22;6974;53.606;9.872;2022-10-26T06:32:22;11.00;99.90
13806;DHT22;6974;53.606;9.872;2022-10-26T06:34:51;11.00;99.90
13806;DHT22;6974;53.606;9.872;2022-10-26T06:37:20;11.00;99.90
13806;DHT22;6974;53.606;9.872;2022-10-26T06:39:49;11.00;99.90
13806;DHT22;6974;53.606;9.872;2022-10-26T06:42:19;11.00;99.90
13806;DHT22;6974;53.606;9.872;2022-10-26T06:44:47;11.10;99.90
13806;DHT22;6974;53.606;9.872;2022-10-26T06:47:19;11.10;99.90
13806;DHT22;6974;53.606;9.872;2022-10-26T06:49:56;11.10;99.90
13806;DHT22;6974;53.606;9.872;2022-10-26T06:52:30;11.10;99.90
13806;DHT22;6974;53.606;9.872;2022-10-26T06:54:58;11.10;99.90
13806;DHT22;6974;53.606;9.872;2022-10-26T06:57:33;11.10;99.90
13806;DHT22;6974;53.606;9.872;2022-10-26T07:00:04;11.20;99.90
13806;DHT22;6974;53.606;9.872;2022-10-26T07:02:32;11.20;99.90
13806;DHT22;6974;53.606;9.872;2022-10-26T07:04:59;11.20;99.90
13806;DHT22;6974;53.606;9.872;2022-10-26T07:07:28;11.20;99.90
13806;DHT22;6974;53.606;9.872;2022-10-26T07:09:56;11.20;99.90
13806;DHT22;6974;53.606;9.872;2022-10-26T07:12:23;11.30;99.90
13806;DHT22;6974;53.606;9.872;2022-10-26T07:14:54;11.30;99.90
13806;DHT22;6974;53.606;9.872;2022-10-26T07:17:21;11.40;99.90
13806;DHT22;6974;53.606;9.872;2022-10-26T07:19:48;11.40;99.90
13806;DHT22;6974;53.606;9.872;2022-10-26T07:22:15;11.30;99.90
13806;DHT22;6974;53.606;9.872;2022-10-26T07:24:44;11.40;99.90
13806;DHT22;6974;53.606;9.872;2022-10-26T07:27:14;11.40;99.90
13806;DHT22;6974;53.606;9.872;2022-10-26T07:29:41;11.50;99.90
13806;DHT22;6974;53.606;9.872;2022-10-26T07:32:12;11.50;99.90
13806;DHT22;6974;53.606;9.872;2022-10-26T07:34:39;11.60;99.90
13806;DHT22;6974;53.606;9.872;2022-10-26T07:37:07;11.60;99.90
13806;DHT22;6974;53.606;9.872;2022-10-26T07:39:34;11.70;99.90
13806;DHT22;6974;53.606;9.872;2022-10-26T07:42:01;11.70;99.90
13806;DHT22;6974;53.606;9.872;2022-10-26T07:44:28;11.70;99.90
13806;DHT22;6974;53.606;9.872;2022-10-26T07:46:55;11.80;99.90
13806;DHT22;6974;53.606;9.872;2022-10-26T07:49:24;11.80;99.90
13806;DHT22;6974;53.606;9.872;2022-10-26T07:51:53;11.80;99.90
13806;DHT22;6974;53.606;9.872;2022-10-26T07:54:20;11.90;99.90
13806;DHT22;6974;53.606;9.872;2022-10-26T07:56:48;11.90;99.90
13806;DHT22;6974;53.606;9.872;2022-10-26T07:59:15;12.00;99.90
13806;DHT22;6974;53.606;9.872;2022-10-26T08:01:43;12.10;99.90
13806;DHT22;6974;53.606;9.872;2022-10-26T08:04:10;12.10;99.90
13806;DHT22;6974;53.606;9.872;2022-10-26T08:06:38;12.20;99.90
13806;DHT22;6974;53.606;9.872;2022-10-26T08:09:06;12.30;99.90
13806;DHT22;6974;53.606;9.872;2022-10-26T08:11:34;12.30;99.90
13806;DHT22;6974;53.606;9.872;2022-10-26T08:14:02;12.40;99.90
13806;DHT22;6974;53.606;9.872;2022-10-26T08:16:29;12.40;99.90
13806;DHT22;6974;53.606;9.872;2022-10-26T08:18:58;12.50;99.90
13806;DHT22;6974;53.606;9.872;2022-10-26T08:21:25;12.60;99.90
13806;DHT22;6974;53.606;9.872;2022-10-26T08:23:54;12.60;99.90
13806;DHT22;6974;53.606;9.872;2022-10-26T08:26:21;12.60;99.90
13806;DHT22;6974;53.606;9.872;2022-10-26T08:28:48;12.70;99.90
13806;DHT22;6974;53.606;9.872;2022-10-26T08:31:15;12.70;99.90
13806;DHT22;6974;53.606;9.872;2022-10-26T08:33:43;12.80;99.90
13806;DHT22;6974;53.606;9.872;2022-10-26T08:36:10;12.80;99.90
13806;DHT22;6974;53.606;9.872;2022-10-26T08:38:39;12.80;99.90
13806;DHT22;6974;53.606;9.872;2022-10-26T08:41:07;12.80;99.90
13806;DHT22;6974;53.606;9.872;2022-10-26T08:43:39;12.90;99.90
13806;DHT22;6974;53.606;9.872;2022-10-26T08:46:10;12.90;99.90
13806;DHT22;6974;53.606;9.872;2022-10-26T08:48:41;12.90;99.90
13806;DHT22;6974;53.606;9.872;2022-10-26T08:51:12;13.10;99.90
13806;DHT22;6974;53.606;9.872;2022-10-26T08:53:46;13.10;99.90
13806;DHT22;6974;53.606;9.872;2022-10-26T08:56:17;13.20;99.90
13806;DHT22;6974;53.606;9.872;2022-10-26T09:04:01;13.50;99.90
13806;DHT22;6974;53.606;9.872;2022-10-26T09:06:34;13.50;99.90
13806;DHT22;6974;53.606;9.872;2022-10-26T09:09:12;13.60;99.90
13806;DHT22;6974;53.606;9.872;2022-10-26T09:11:57;13.80;99.90
13806;DHT22;6974;53.606;9.872;2022-10-26T09:14:34;13.90;99.90
13806;DHT22;6974;53.606;9.872;2022-10-26T09:17:09;13.90;99.90
13806;DHT22;6974;53.606;9.872;2022-10-26T09:20:06;14.00;99.90
13806;DHT22;6974;53.606;9.872;2022-10-26T09:22:41;14.00;99.90
13806;DHT22;6974;53.606;9.872;2022-10-26T09:25:17;14.10;99.90
13806;DHT22;6974;53.606;9.872;2022-10-26T09:27:48;14.20;99.90
13806;DHT22;6974;53.606;9.872;2022-10-26T09:30:18;14.30;99.90
13806;DHT22;6974;53.606;9.872;2022-10-26T09:32:46;14.30;99.90
13806;DHT22;6974;53.606;9.872;2022-10-26T09:35:18;14.30;99.90
13806;DHT22;6974;53.606;9.872;2022-10-26T09:37:48;14.50;99.90
13806;DHT22;6974;53.606;9.872;2022-10-26T09:40:21;14.60;99.90
13806;DHT22;6974;53.606;9.872;2022-10-26T09:42:56;14.80;99.90
13806;DHT22;6974;53.606;9.872;2022-10-26T09:45:27;14.90;99.90
13806;DHT22;6974;53.606;9.872;2022-10-26T09:47:58;15.00;99.90
13806;DHT22;6974;53.606;9.872;2022-10-26T09:50:29;14.90;99.90
13806;DHT22;6974;53.606;9.872;2022-10-26T09:52:58;14.90;99.90
13806;DHT22;6974;53.606;9.872;2022-10-26T09:55:25;14.90;99.90
13806;DHT22;6974;53.606;9.872;2022-10-26T09:57:57;14.90;99.90
13806;DHT22;6974;53.606;9.872;2022-10-26T10:00:25;14.90;99.90
13806;DHT22;6974;53.606;9.872;2022-10-26T10:02:54;14.90;99.90
13806;DHT22;6974;53.606;9.872;2022-10-26T10:05:26;14.90;99.90
13806;DHT22;6974;53.606;9.872;2022-10-26T10:08:10;14.90;99.90
13806;DHT22;6974;53.606;9.872;2022-10-26T10:10:37;14.90;99.90
13806;DHT22;6974;53.606;9.872;2022-10-26T10:13:15;14.90;99.90
13806;DHT22;6974;53.606;9.872;2022-10-26T10:15:51;14.90;99.90
13806;DHT22;6974;53.606;9.872;2022-10-26T10:18:19;15.00;99.90
13806;DHT22;6974;53.606;9.872;2022-10-26T10:20:51;15.00;99.90
13806;DHT22;6974;53.606;9.872;2022-10-26T10:23:28;15.00;99.90
13806;DHT22;6974;53.606;9.872;2022-10-26T10:26:00;15.10;99.90
13806;DHT22;6974;53.606;9.872;2022-10-26T10:28:29;15.10;99.90
13806;DHT22;6974;53.606;9.872;2022-10-26T10:30:58;15.00;99.90
13806;DHT22;6974;53.606;9.872;2022-10-26T10:33:33;15.10;99.90
13806;DHT22;6974;53.606;9.872;2022-10-26T10:36:01;15.10;99.90
13806;DHT22;6974;53.606;9.872;2022-10-26T10:38:29;15.10;99.90
13806;DHT22;6974;53.606;9.872;2022-10-26T10:41:02;15.10;99.90
13806;DHT22;6974;53.606;9.872;2022-10-26T10:43:31;15.10;99.90
13806;DHT22;6974;53.606;9.872;2022-10-26T10:45:58;15.10;99.90
13806;DHT22;6974;53.606;9.872;2022-10-26T10:48:27;15.10;99.90
13806;DHT22;6974;53.606;9.872;2022-10-26T10:50:56;15.10;99.90
13806;DHT22;6974;53.606;9.872;2022-10-26T10:53:27;15.10;99.90
13806;DHT22;6974;53.606;9.872;2022-10-26T10:56:22;15.10;99.90
13806;DHT22;6974;53.606;9.872;2022-10-26T10:59:05;15.20;99.90
13806;DHT22;6974;53.606;9.872;2022-10-26T11:01:38;15.20;99.90
13806;DHT22;6974;53.606;9.872;2022-10-26T11:04:17;15.20;99.90
13806;DHT22;6974;53.606;9.872;2022-10-26T11:06:47;15.30;99.90
13806;DHT22;6974;53.606;9.872;2022-10-26T11:09:17;15.30;99.90
13806;DHT22;6974;53.606;9.872;2022-10-26T11:11:47;15.30;99.90
13806;DHT22;6974;53.606;9.872;2022-10-26T11:14:21;15.30;99.90
13806;DHT22;6974;53.606;9.872;2022-10-26T11:16:55;15.40;99.90
13806;DHT22;6974;53.606;9.872;2022-10-26T11:19:25;15.40;99.90
13806;DHT22;6974;53.606;9.872;2022-10-26T11:21:56;15.40;99.90
13806;DHT22;6974;53.606;9.872;2022-10-26T11:24:25;15.50;99.90
13806;DHT22;6974;53.606;9.872;2022-10-26T11:26:56;15.40;99.90
13806;DHT22;6974;53.606;9.872;2022-10-26T11:29:32;15.40;99.90
13806;DHT22;6974;53.606;9.872;2022-10-26T11:32:06;15.50;99.90
13806;DHT22;6974;53.606;9.872;2022-10-26T11:34:39;15.50;99.90
13806;DHT22;6974;53.606;9.872;2022-10-26T11:37:14;15.50;99.90
13806;DHT22;6974;53.606;9.872;2022-10-26T11:39:45;15.60;99.90
13806;DHT22;6974;53.606;9.872;2022-10-26T11:42:21;15.60;99.90
13806;DHT22;6974;53.606;9.872;2022-10-26T11:44:58;15.60;99.90
13806;DHT22;6974;53.606;9.872;2022-10-26T11:47:31;15.60;99.90
13806;DHT22;6974;53.606;9.872;2022-10-26T11:50:05;15.60;99.90
13806;DHT22;6974;53.606;9.872;2022-10-26T11:52:43;15.60;99.90
13806;DHT22;6974;53.606;9.872;2022-10-26T11:55:10;15.70;99.90
13806;DHT22;6974;53.606;9.872;2022-10-26T11:57:37;15.70;99.90
13806;DHT22;6974;53.606;9.872;2022-10-26T12:00:13;15.70;99.90
13806;DHT22;6974;53.606;9.872;2022-10-26T12:02:42;15.80;99.90
13806;DHT22;6974;53.606;9.872;2022-10-26T12:05:18;15.80;99.90
13806;DHT22;6974;53.606;9.872;2022-10-26T12:07:48;15.80;99.90
13806;DHT22;6974;53.606;9.872;2022-10-26T12:10:25;15.90;99.90
13806;DHT22;6974;53.606;9.872;2022-10-26T12:12:59;15.80;99.90
13806;DHT22;6974;53.606;9.872;2022-10-26T12:15:33;15.90;99.90
13806;DHT22;6974;53.606;9.872;2022-10-26T12:18:10;15.90;99.90
13806;DHT22;6974;53.606;9.872;2022-10-26T12:20:54;16.00;99.90
13806;DHT22;6974;53.606;9.872;2022-10-26T12:23:27;16.10;99.90
13806;DHT22;6974;53.606;9.872;2022-10-26T12:35:37;16.10;99.90
13806;DHT22;6974;53.606;9.872;2022-10-26T12:41:17;16.10;99.90
13806;DHT22;6974;53.606;9.872;2022-10-26T12:43:44;16.20;99.90
13806;DHT22;6974;53.606;9.872;2022-10-26T12:46:42;16.30;99.90
13806;DHT22;6974;53.606;9.872;2022-10-26T12:52:49;16.40;99.90
13806;DHT22;6974;53.606;9.872;2022-10-26T12:55:36;16.40;99.90
13806;DHT22;6974;53.606;9.872;2022-10-26T13:07:22;16.40;99.90
13806;DHT22;6974;53.606;9.872;2022-10-26T13:09:59;16.50;99.90
13806;DHT22;6974;53.606;9.872;2022-10-26T13:12:34;16.50;99.90
13806;DHT22;6974;53.606;9.872;2022-10-26T13:15:03;16.50;99.90
13806;DHT22;6974;53.606;9.872;2022-10-26T13:17:33;16.60;99.90
13806;DHT22;6974;53.606;9.872;2022-10-26T13:20:01;16.60;99.90
13806;DHT22;6974;53.606;9.872;2022-10-26T13:22:28;16.60;99.90
13806;DHT22;6974;53.606;9.872;2022-10-26T13:24:59;16.60;99.90
13806;DHT22;6974;53.606;9.872;2022-10-26T13:27:41;16.60;99.90
13806;DHT22;6974;53.606;9.872;2022-10-26T13:33:19;16.60;99.90
13806;DHT22;6974;53.606;9.872;2022-10-26T13:35:49;16.70;99.90
13806;DHT22;6974;53.606;9.872;2022-10-26T13:38:19;16.70;99.90
13806;DHT22;6974;53.606;9.872;2022-10-26T13:40:52;16.80;99.90
13806;DHT22;6974;53.606;9.872;2022-10-26T13:43:24;16.90;99.90
13806;DHT22;6974;53.606;9.872;2022-10-26T13:45:54;16.90;99.90
13806;DHT22;6974;53.606;9.872;2022-10-26T13:48:30;16.80;99.90
13806;DHT22;6974;53.606;9.872;2022-10-26T13:51:01;16.90;99.90
13806;DHT22;6974;53.606;9.872;2022-10-26T13:53:36;16.90;99.90
13806;DHT22;6974;53.606;9.872;2022-10-26T13:56:16;16.90;99.90
13806;DHT22;6974;53.606;9.872;2022-10-26T13:58:46;16.90;99.90
13806;DHT22;6974;53.606;9.872;2022-10-26T14:01:16;16.90;99.90
13806;DHT22;6974;53.606;9.872;2022-10-26T14:03:46;16.90;99.90
13806;DHT22;6974;53.606;9.872;2022-10-26T14:06:17;16.90;99.90
13806;DHT22;6974;53.606;9.872;2022-10-26T14:08:47;16.90;99.90
13806;DHT22;6974;53.606;9.872;2022-10-26T14:11:19;17.00;99.90
13806;DHT22;6974;53.606;9.872;2022-10-26T14:13:48;16.90;99.90
13806;DHT22;6974;53.606;9.872;2022-10-26T14:16:17;16.90;99.90
13806;DHT22;6974;53.606;9.872;2022-10-26T14:18:45;16.90;99.90
13806;DHT22;6974;53.606;9.872;2022-10-26T14:21:14;16.90;99.90
13806;DHT22;6974;53.606;9.872;2022-10-26T14:23:46;16.90;99.90
13806;DHT22;6974;53.606;9.872;2022-10-26T14:26:23;16.90;99.90
13806;DHT22;6974;53.606;9.872;2022-10-26T14:28:52;16.90;99.90
13806;DHT22;6974;53.606;9.872;2022-10-26T14:31:25;16.80;99.90
13806;DHT22;6974;53.606;9.872;2022-10-26T14:33:52;16.90;99.90
13806;DHT22;6974;53.606;9.872;2022-10-26T14:36:22;16.80;99.90
13806;DHT22;6974;53.606;9.872;2022-10-26T14:38:54;16.90;99.90
13806;DHT22;6974;53.606;9.872;2022-10-26T14:41:24;17.00;99.90
13806;DHT22;6974;53.606;9.872;2022-10-26T14:43:54;17.00;99.90
13806;DHT22;6974;53.606;9.872;2022-10-26T14:46:22;17.00;99.90
13806;DHT22;6974;53.606;9.872;2022-10-26T14:48:53;17.00;99.90
13806;DHT22;6974;53.606;9.872;2022-10-26T14:51:25;17.00;99.90
13806;DHT22;6974;53.606;9.872;2022-10-26T14:53:53;16.90;99.90
13806;DHT22;6974;53.606;9.872;2022-10-26T14:56:26;16.90;99.90
13806;DHT22;6974;53.606;9.872;2022-10-26T14:58:55;16.90;99.90
13806;DHT22;6974;53.606;9.872;2022-10-26T15:01:30;16.90;99.90
13806;DHT22;6974;53.606;9.872;2022-10-26T15:03:59;16.90;99.90
13806;DHT22;6974;53.606;9.872;2022-10-26T15:06:33;16.90;99.90
13806;DHT22;6974;53.606;9.872;2022-10-26T15:09:03;16.90;99.90
13806;DHT22;6974;53.606;9.872;2022-10-26T15:11:33;16.80;99.90
13806;DHT22;6974;53.606;9.872;2022-10-26T15:14:01;16.80;99.90
13806;DHT22;6974;53.606;9.872;2022-10-26T15:16:31;16.80;99.90
13806;DHT22;6974;53.606;9.872;2022-10-26T15:19:06;16.80;99.90
13806;DHT22;6974;53.606;9.872;2022-10-26T15:21:34;16.70;99.90
13806;DHT22;6974;53.606;9.872;2022-10-26T15:24:17;16.60;99.90
13806;DHT22;6974;53.606;9.872;2022-10-26T15:26:49;16.60;99.90
13806;DHT22;6974;53.606;9.872;2022-10-26T15:29:39;16.60;99.90
13806;DHT22;6974;53.606;9.872;2022-10-26T15:32:26;16.60;99.90
13806;DHT22;6974;53.606;9.872;2022-10-26T15:35:22;16.50;99.90
13806;DHT22;6974;53.606;9.872;2022-10-26T15:37:51;16.40;99.90
13806;DHT22;6974;53.606;9.872;2022-10-26T15:40:18;16.30;99.90
13806;DHT22;6974;53.606;9.872;2022-10-26T15:42:49;16.30;99.90
13806;DHT22;6974;53.606;9.872;2022-10-26T15:45:19;16.30;99.90
13806;DHT22;6974;53.606;9.872;2022-10-26T15:47:46;16.20;99.90
13806;DHT22;6974;53.606;9.872;2022-10-26T15:50:14;16.10;99.90
13806;DHT22;6974;53.606;9.872;2022-10-26T15:52:41;16.10;99.90
13806;DHT22;6974;53.606;9.872;2022-10-26T15:55:08;16.00;99.90
13806;DHT22;6974;53.606;9.872;2022-10-26T15:57:36;16.00;99.90
13806;DHT22;6974;53.606;9.872;2022-10-26T16:00:07;15.90;99.90
13806;DHT22;6974;53.606;9.872;2022-10-26T16:02:34;15.90;99.90
13806;DHT22;6974;53.606;9.872;2022-10-26T16:05:02;15.80;99.90
13806;DHT22;6974;53.606;9.872;2022-10-26T16:07:29;15.80;99.90
13806;DHT22;6974;53.606;9.872;2022-10-26T16:09:56;15.70;99.90
13806;DHT22;6974;53.606;9.872;2022-10-26T16:12:23;15.70;99.90
13806;DHT22;6974;53.606;9.872;2022-10-26T16:14:49;15.60;99.90
13806;DHT22;6974;53.606;9.872;2022-10-26T16:17:17;15.60;99.90
13806;DHT22;6974;53.606;9.872;2022-10-26T16:19:46;15.60;99.90
13806;DHT22;6974;53.606;9.872;2022-10-26T16:22:13;15.50;99.90
13806;DHT22;6974;53.606;9.872;2022-10-26T16:24:40;15.50;99.90
13806;DHT22;6974;53.606;9.872;2022-10-26T16:27:07;15.50;99.90
13806;DHT22;6974;53.606;9.872;2022-10-26T16:29:33;15.50;99.90
13806;DHT22;6974;53.606;9.872;2022-10-26T16:32:00;15.50;99.90
13806;DHT22;6974;53.606;9.872;2022-10-26T16:34:28;15.40;99.90
13806;DHT22;6974;53.606;9.872;2022-10-26T16:36:55;15.40;99.90
13806;DHT22;6974;53.606;9.872;2022-10-26T16:39:22;15.40;99.90
13806;DHT22;6974;53.606;9.872;2022-10-26T16:41:48;15.40;99.90
13806;DHT22;6974;53.606;9.872;2022-10-26T16:44:16;15.30;99.90
13806;DHT22;6974;53.606;9.872;2022-10-26T16:46:43;15.30;99.90